Time;durP1;ratioP1;P1;durP2;ratioP2;P2;SDS_P1;SDS_P2;PMS_P1;PMS_P2;Temp;Humidity;BMP_temperature;BMP_pressure;BME280_temperature;BME280_humidity;BME280_pressure;Samples;Min_cycle;Max_cycle;Signal;HPM_P1;HPM_P2
2021/08/14 00:01:33;;;;;;;;;;;;;;;;;;4963386;28;20854;-73
2021/08/14 00:03:58;;;;;;;;;;;;;;;;;;4968560;28;20446;-73
2021/08/14 00:06:24;;;;;;;;;;;;;;;;;;4948000;28;20496;-73
2021/08/14 00:08:49;;;;;;;;;;;;;;;;;;4964262;28;20397;-72
2021/08/14 00:11:14;;;;;;;;;;;;;;;;;;4969190;28;19914;-72
2021/08/14 00:13:39;;;;;;;;;;;;;;;;;;4962225;28;20209;-73
2021/08/14 00:16:04;;;;;;;;;;;;;;;;;;4951977;28;19914;-72
2021/08/14 00:18:30;;;;;;;;;;;;;;;;;;4963341;28;19914;-72
2021/08/14 00:20:55;;;;;;;;;;;;;;;;;;4966439;28;19925;-73
2021/08/14 00:23:20;;;;;;;;;;;;;;;;;;4966347;28;19914;-72
2021/08/14 00:25:45;;;;;;;;;;;;;;;;;;4946967;28;19917;-73
2021/08/14 00:28:11;;;;;;;;;;;;;;;;;;4952024;28;19914;-72
2021/08/14 00:30:36;;;;;;;;;;;;;;;;;;4943715;28;19932;-72
2021/08/14 00:33:01;;;;;;;;;;;;;;;;;;4961114;28;19922;-72
2021/08/14 00:35:26;;;;;;;;;;;;;;;;;;4950041;28;19958;-73
2021/08/14 00:37:53;;;;;;;;;;;;;;;;;;4962642;28;19914;-72
2021/08/14 00:40:18;;;;;;;;;;;;;;;;;;4951532;28;20374;-72
2021/08/14 00:42:43;;;;;;;;;;;;;;;;;;4963416;28;19914;-73
2021/08/14 00:45:08;;;;;;;;;;;;;;;;;;4961462;28;19917;-72
2021/08/14 00:47:34;;;;;;;;;;;;;;;;;;4970619;28;19914;-72
2021/08/14 00:49:59;;;;;;;;;;;;;;;;;;4947212;28;20434;-73
2021/08/14 00:52:24;;;;;;;;;;;;;;;;;;4967016;28;19921;-72
2021/08/14 00:54:49;;;;;;;;;;;;;;;;;;4948094;28;19918;-72
2021/08/14 00:57:15;;;;;;;;;;;;;;;;;;4964213;28;19988;-72
2021/08/14 00:59:40;;;;;;;;;;;;;;;;;;4954745;28;20402;-73
2021/08/14 01:02:05;;;;;;;;;;;;;;;;;;4948593;28;20267;-73
2021/08/14 01:04:30;;;;;;;;;;;;;;;;;;4939458;28;19957;-73
2021/08/14 01:06:56;;;;;;;;;;;;;;;;;;4944675;28;20017;-72
2021/08/14 01:09:21;;;;;;;;;;;;;;;;;;4948649;28;19997;-72
2021/08/14 01:11:46;;;;;;;;;;;;;;;;;;4967599;28;19918;-72
2021/08/14 01:14:11;;;;;;;;;;;;;;;;;;4947920;28;19925;-72
2021/08/14 01:16:36;;;;;;;;;;;;;;;;;;4952540;28;19937;-72
2021/08/14 01:19:02;;;;;;;;;;;;;;;;;;4964728;28;20375;-73
2021/08/14 01:21:27;;;;;;;;;;;;;;;;;;4968003;28;20511;-73
2021/08/14 01:23:52;;;;;;;;;;;;;;;;;;4959101;28;19921;-73
2021/08/14 01:26:17;;;;;;;;;;;;;;;;;;4965211;28;19913;-72
2021/08/14 01:28:43;;;;;;;;;;;;;;;;;;4968766;28;19910;-72
2021/08/14 01:31:08;;;;;;;;;;;;;;;;;;4961753;28;19913;-73
2021/08/14 01:33:34;;;;;;;;;;;;;;;;;;4943383;28;20319;-72
2021/08/14 01:35:59;;;;;;;;;;;;;;;;;;4967863;28;20476;-72
2021/08/14 01:38:24;;;;;;;;;;;;;;;;;;4968010;28;20000;-73
2021/08/14 01:40:49;;;;;;;;;;;;;;;;;;4975718;28;19945;-73
2021/08/14 01:43:15;;;;;;;;;;;;;;;;;;4948358;28;20041;-73
2021/08/14 01:45:40;;;;;;;;;;;;;;;;;;4967754;28;19933;-72
2021/08/14 01:48:06;;;;;;;;;;;;;;;;;;4976440;28;20020;-72
2021/08/14 01:50:32;;;;;;;;;;;;;;;;;;4969546;28;20019;-72
2021/08/14 01:52:57;;;;;;;;;;;;;;;;;;4972764;28;19924;-73
2021/08/14 01:55:22;;;;;;;;;;;;;;;;;;4969562;28;20000;-72
2021/08/14 01:57:47;;;;;;;;;;;;;;;;;;4966918;28;19920;-73
2021/08/14 02:00:12;;;;;;;;;;;;;;;;;;4972309;28;19920;-73
2021/08/14 02:02:38;;;;;;;;;;;;;;;;;;4951129;28;19990;-73
2021/08/14 02:05:03;;;;;;;;;;;;;;;;;;4969704;28;19921;-72
2021/08/14 02:07:28;;;;;;;;;;;;;;;;;;4933183;28;20004;-73
2021/08/14 02:09:54;;;;;;;;;;;;;;;;;;4950225;28;20031;-73
2021/08/14 02:12:19;;;;;;;;;;;;;;;;;;4960773;28;19917;-72
2021/08/14 02:14:44;;;;;;;;;;;;;;;;;;4966706;28;19922;-73
2021/08/14 02:17:10;;;;;;;;;;;;;;;;;;4952947;28;19917;-73
2021/08/14 02:19:35;;;;;;;;;;;;;;;;;;4966088;28;19949;-73
2021/08/14 02:22:00;;;;;;;;;;;;;;;;;;4966796;28;20372;-72
2021/08/14 02:24:25;;;;;;;;;;;;;;;;;;4953879;28;19916;-72
2021/08/14 02:26:51;;;;;;;;;;;;;;;;;;4949367;28;19914;-73
2021/08/14 02:29:16;;;;;;;;;;;;;;;;;;4970516;28;20413;-72
2021/08/14 02:31:41;;;;;;;;;;;;;;;;;;4963684;28;19962;-73
2021/08/14 02:34:06;;;;;;;;;;;;;;;;;;4964421;28;19918;-72
2021/08/14 02:36:31;;;;;;;;;;;;;;;;;;4970527;28;19918;-72
2021/08/14 02:38:57;;;;;;;;;;;;;;;;;;4965705;28;20367;-72
2021/08/14 02:41:22;;;;;;;;;;;;;;;;;;4962401;28;19920;-72
2021/08/14 02:43:47;;;;;;;;;;;;;;;;;;4949427;28;19921;-72
2021/08/14 02:46:12;;;;;;;;;;;;;;;;;;4946928;28;19914;-72
2021/08/14 02:48:38;;;;;;;;;;;;;;;;;;4976311;28;19914;-73
2021/08/14 02:51:03;;;;;;;;;;;;;;;;;;4965434;28;20208;-72
2021/08/14 02:53:28;;;;;;;;;;;;;;;;;;4973439;28;20012;-72
2021/08/14 02:55:53;;;;;;;;;;;;;;;;;;4967155;28;19917;-73
2021/08/14 02:58:18;;;;;;;;;;;;;;;;;;4954455;28;20255;-73
2021/08/14 03:00:44;;;;;;;;;;;;;;;;;;4974128;28;19914;-73
2021/08/14 03:03:09;;;;;;;;;;;;;;;;;;4966834;28;19952;-73
2021/08/14 03:05:34;;;;;;;;;;;;;;;;;;4970753;28;19945;-73
2021/08/14 03:07:59;;;;;;;;;;;;;;;;;;4965866;28;19968;-73
2021/08/14 03:10:25;;;;;;;;;;;;;;;;;;4956267;28;19914;-72
2021/08/14 03:12:51;;;;;;;;;;;;;;;;;;4971135;28;20256;-73
2021/08/14 03:15:16;;;;;;;;;;;;;;;;;;4964262;28;19933;-73
2021/08/14 03:17:41;;;;;;;;;;;;;;;;;;4974089;28;19914;-72
2021/08/14 03:20:06;;;;;;;;;;;;;;;;;;4948061;28;19980;-72
2021/08/14 03:22:31;;;;;;;;;;;;;;;;;;4963392;28;19921;-73
2021/08/14 03:24:57;;;;;;;;;;;;;;;;;;4943451;28;19925;-73
2021/08/14 03:27:22;;;;;;;;;;;;;;;;;;4964004;28;19918;-73
2021/08/14 03:29:47;;;;;;;;;;;;;;;;;;4954768;28;19941;-73
2021/08/14 03:32:12;;;;;;;;;;;;;;;;;;4948398;28;19973;-73
2021/08/14 03:34:38;;;;;;;;;;;;;;;;;;4963697;28;19917;-73
2021/08/14 03:37:03;;;;;;;;;;;;;;;;;;4952771;28;19969;-72
2021/08/14 03:39:28;;;;;;;;;;;;;;;;;;4964292;28;19921;-73
2021/08/14 03:41:53;;;;;;;;;;;;;;;;;;4968092;28;19911;-73
2021/08/14 03:44:18;;;;;;;;;;;;;;;;;;4965440;28;20434;-72
2021/08/14 03:46:44;;;;;;;;;;;;;;;;;;4963837;28;20299;-73
2021/08/14 03:49:09;;;;;;;;;;;;;;;;;;4951229;28;20312;-73
2021/08/14 03:51:34;;;;;;;;;;;;;;;;;;4949416;28;20016;-72
2021/08/14 03:53:59;;;;;;;;;;;;;;;;;;4970786;28;19964;-73
2021/08/14 03:56:24;;;;;;;;;;;;;;;;;;4963549;28;19988;-72
2021/08/14 03:58:50;;;;;;;;;;;;;;;;;;4961377;28;19949;-73
2021/08/14 04:01:15;;;;;;;;;;;;;;;;;;4971421;28;20204;-73
2021/08/14 04:03:40;;;;;;;;;;;;;;;;;;4963947;28;19957;-73
2021/08/14 04:06:06;;;;;;;;;;;;;;;;;;4970273;28;19993;-73
2021/08/14 04:08:31;;;;;;;;;;;;;;;;;;4965717;28;19916;-72
2021/08/14 04:10:56;;;;;;;;;;;;;;;;;;4965540;28;19922;-73
2021/08/14 04:13:21;;;;;;;;;;;;;;;;;;4968643;28;19914;-72
2021/08/14 04:15:46;;;;;;;;;;;;;;;;;;4964372;28;19949;-72
2021/08/14 04:18:12;;;;;;;;;;;;;;;;;;4954711;28;20045;-72
2021/08/14 04:20:37;;;;;;;;;;;;;;;;;;4962661;28;19979;-72
2021/08/14 04:23:02;;;;;;;;;;;;;;;;;;4965181;28;19918;-72
2021/08/14 04:25:27;;;;;;;;;;;;;;;;;;4971967;28;19914;-72
2021/08/14 04:27:53;;;;;;;;;;;;;;;;;;4949600;28;19913;-72
2021/08/14 04:30:18;;;;;;;;;;;;;;;;;;4968377;28;19937;-72
2021/08/14 04:32:43;;;;;;;;;;;;;;;;;;4945534;28;20008;-72
2021/08/14 04:35:09;;;;;;;;;;;;;;;;;;4963603;28;19914;-73
2021/08/14 04:37:34;;;;;;;;;;;;;;;;;;4965360;28;19937;-72
2021/08/14 04:39:59;;;;;;;;;;;;;;;;;;4945085;28;19920;-72
2021/08/14 04:42:25;;;;;;;;;;;;;;;;;;4968691;28;19971;-72
2021/08/14 04:44:50;;;;;;;;;;;;;;;;;;4945455;28;19918;-72
2021/08/14 04:47:15;;;;;;;;;;;;;;;;;;4966934;28;19945;-72
2021/08/14 04:49:40;;;;;;;;;;;;;;;;;;4967687;28;19914;-72
2021/08/14 04:52:05;;;;;;;;;;;;;;;;;;4944796;28;19914;-72
2021/08/14 04:54:31;;;;;;;;;;;;;;;;;;4938713;28;19914;-72
2021/08/14 04:56:56;;;;;;;;;;;;;;;;;;4963905;28;19913;-73
2021/08/14 04:59:23;;;;;;;;;;;;;;;;;;4962102;28;19914;-72
2021/08/14 05:01:48;;;;;;;;;;;;;;;;;;4948931;28;19925;-72
2021/08/14 05:04:14;;;;;;;;;;;;;;;;;;4960847;28;19925;-72
2021/08/14 05:06:39;;;;;;;;;;;;;;;;;;4967381;28;19976;-72
2021/08/14 05:09:06;;;;;;;;;;;;;;;;;;4962037;28;19922;-72
2021/08/14 05:11:32;;;;;;;;;;;;;;;;;;4940805;28;19921;-72
2021/08/14 05:13:57;;;;;;;;;;;;;;;;;;4970499;28;20573;-72
2021/08/14 05:16:24;;;;;;;;;;;;;;;;;;4932511;28;20428;-72
2021/08/14 05:18:50;;;;;;;;;;;;;;;;;;4970676;28;20441;-72
2021/08/14 05:21:15;;;;;;;;;;;;;;;;;;4966113;28;19918;-72
2021/08/14 05:23:40;;;;;;;;;;;;;;;;;;4965535;28;20594;-72
2021/08/14 05:26:05;;;;;;;;;;;;;;;;;;4973169;28;20357;-72
2021/08/14 05:28:31;;;;;;;;;;;;;;;;;;4963530;28;19914;-72
2021/08/14 05:30:56;;;;;;;;;;;;;;;;;;4952803;28;19944;-72
2021/08/14 05:33:21;;;;;;;;;;;;;;;;;;4963971;28;19925;-72
2021/08/14 05:35:46;;;;;;;;;;;;;;;;;;4965836;28;20191;-73
2021/08/14 05:38:11;;;;;;;;;;;;;;;;;;4971264;28;19913;-72
2021/08/14 05:40:37;;;;;;;;;;;;;;;;;;4968748;28;19972;-73
2021/08/14 05:43:03;;;;;;;;;;;;;;;;;;4970669;28;19949;-73
2021/08/14 05:45:29;;;;;;;;;;;;;;;;;;4961848;28;20002;-72
2021/08/14 05:47:54;;;;;;;;;;;;;;;;;;4947023;28;19995;-72
2021/08/14 05:50:19;;;;;;;;;;;;;;;;;;4970750;28;19914;-72
2021/08/14 05:52:44;;;;;;;;;;;;;;;;;;4967349;28;19938;-73
2021/08/14 05:55:11;;;;;;;;;;;;;;;;;;4936785;28;19918;-72
2021/08/14 05:57:36;;;;;;;;;;;;;;;;;;4966461;28;20729;-72
2021/08/14 06:00:01;;;;;;;;;;;;;;;;;;4965524;28;19914;-73
2021/08/14 06:02:29;;;;;;;;;;;;;;;;;;4973926;28;20427;-72
2021/08/14 06:04:55;;;;;;;;;;;;;;;;;;4946331;28;19996;-72
2021/08/14 06:07:20;;;;;;;;;;;;;;;;;;4970405;28;20271;-73
2021/08/14 06:09:45;;;;;;;;;;;;;;;;;;4966625;28;19913;-73
2021/08/14 06:12:10;;;;;;;;;;;;;;;;;;4965059;28;19928;-73
2021/08/14 06:14:36;;;;;;;;;;;;;;;;;;4952215;28;19918;-72
2021/08/14 06:17:01;;;;;;;;;;;;;;;;;;4948443;28;20430;-73
2021/08/14 06:19:28;;;;;;;;;;;;;;;;;;4950736;28;20585;-73
2021/08/14 06:21:53;;;;;;;;;;;;;;;;;;4970639;28;19917;-72
2021/08/14 06:24:19;;;;;;;;;;;;;;;;;;4965025;28;19928;-72
2021/08/14 06:26:44;;;;;;;;;;;;;;;;;;4955129;28;19940;-72
2021/08/14 06:29:09;;;;;;;;;;;;;;;;;;4964637;28;20283;-72
2021/08/14 06:31:34;;;;;;;;;;;;;;;;;;4947910;28;19913;-72
2021/08/14 06:33:59;;;;;;;;;;;;;;;;;;4951116;28;20421;-72
2021/08/14 06:36:25;;;;;;;;;;;;;;;;;;4964333;28;20319;-72
2021/08/14 06:38:50;;;;;;;;;;;;;;;;;;4958572;28;19917;-72
2021/08/14 06:41:15;;;;;;;;;;;;;;;;;;4937155;28;20373;-74
2021/08/14 06:43:40;;;;;;;;;;;;;;;;;;4950189;28;19935;-73
2021/08/14 06:46:06;;;;;;;;;;;;;;;;;;4969537;28;19913;-72
2021/08/14 06:48:34;;;;;;;;;;;;;;;;;;4946869;28;20291;-72
2021/08/14 06:50:59;;;;;;;;;;;;;;;;;;4971633;28;20320;-72
2021/08/14 06:53:24;;;;;;;;;;;;;;;;;;4967794;28;20328;-72
2021/08/14 06:55:50;;;;;;;;;;;;;;;;;;4949266;28;19957;-72
2021/08/14 06:58:15;;;;;;;;;;;;;;;;;;4954449;28;20016;-71
2021/08/14 07:00:43;;;;;;;;;;;;;;;;;;4947924;28;19913;-72
2021/08/14 07:03:11;;;;;;;;;;;;;;;;;;4973700;28;19922;-72
2021/08/14 07:05:36;;;;;;;;;;;;;;;;;;4960526;28;20000;-72
2021/08/14 07:08:03;;;;;;;;;;;;;;;;;;4962755;28;19961;-72
2021/08/14 07:10:28;;;;;;;;;;;;;;;;;;4938575;28;19917;-72
2021/08/14 07:12:54;;;;;;;;;;;;;;;;;;4966317;28;19914;-72
2021/08/14 07:15:19;;;;;;;;;;;;;;;;;;4971606;28;19929;-72
2021/08/14 07:17:44;;;;;;;;;;;;;;;;;;4947205;28;19924;-72
2021/08/14 07:20:09;;;;;;;;;;;;;;;;;;4945025;28;19976;-72
2021/08/14 07:22:35;;;;;;;;;;;;;;;;;;4968711;28;19924;-71
2021/08/14 07:25:00;;;;;;;;;;;;;;;;;;4950161;28;20267;-72
2021/08/14 07:27:25;;;;;;;;;;;;;;;;;;4968333;28;19920;-72
2021/08/14 07:29:51;;;;;;;;;;;;;;;;;;4946756;28;19913;-72
2021/08/14 07:32:16;;;;;;;;;;;;;;;;;;4967190;28;19921;-72
2021/08/14 07:34:41;;;;;;;;;;;;;;;;;;4970121;28;19910;-72
2021/08/14 07:37:06;;;;;;;;;;;;;;;;;;4964040;28;19914;-72
2021/08/14 07:39:31;;;;;;;;;;;;;;;;;;4967607;28;20330;-72
2021/08/14 07:41:57;;;;;;;;;;;;;;;;;;4958033;28;19940;-72
2021/08/14 07:44:22;;;;;;;;;;;;;;;;;;4945865;28;20025;-72
2021/08/14 07:46:47;;;;;;;;;;;;;;;;;;4971909;28;19972;-72
2021/08/14 07:49:12;;;;;;;;;;;;;;;;;;4946987;28;19914;-72
2021/08/14 07:51:38;;;;;;;;;;;;;;;;;;4970754;28;20462;-71
2021/08/14 07:54:03;;;;;;;;;;;;;;;;;;4946766;28;20302;-72
2021/08/14 07:56:28;;;;;;;;;;;;;;;;;;4944842;28;19997;-72
2021/08/14 07:58:53;;;;;;;;;;;;;;;;;;4955093;28;19910;-72
2021/08/14 08:01:18;;;;;;;;;;;;;;;;;;4932280;28;19914;-72
2021/08/14 08:03:44;;;;;;;;;;;;;;;;;;4972990;28;20395;-73
2021/08/14 08:06:09;;;;;;;;;;;;;;;;;;4944143;28;20386;-73
2021/08/14 08:08:34;;;;;;;;;;;;;;;;;;4964687;28;19914;-73
2021/08/14 08:11:00;;;;;;;;;;;;;;;;;;4949558;28;19910;-72
2021/08/14 08:13:25;;;;;;;;;;;;;;;;;;4961154;28;19981;-73
2021/08/14 08:15:50;;;;;;;;;;;;;;;;;;4970193;28;20374;-73
2021/08/14 08:18:15;;;;;;;;;;;;;;;;;;4965347;28;20313;-73
2021/08/14 08:20:40;;;;;;;;;;;;;;;;;;4960917;28;19917;-73
2021/08/14 08:23:07;;;;;;;;;;;;;;;;;;4969919;28;19914;-73
2021/08/14 08:25:32;;;;;;;;;;;;;;;;;;4969231;28;20362;-73
2021/08/14 08:28:01;;;;;;;;;;;;;;;;;;4968653;28;19918;-72
2021/08/14 08:30:26;;;;;;;;;;;;;;;;;;4944473;28;19914;-72
2021/08/14 08:32:51;;;;;;;;;;;;;;;;;;4960583;28;20327;-72
2021/08/14 08:35:17;;;;;;;;;;;;;;;;;;4971958;28;20742;-72
2021/08/14 08:37:42;;;;;;;;;;;;;;;;;;4953464;28;20406;-73
2021/08/14 08:40:07;;;;;;;;;;;;;;;;;;4964125;28;20419;-72
2021/08/14 08:42:32;;;;;;;;;;;;;;;;;;4958791;28;19918;-72
2021/08/14 08:44:58;;;;;;;;;;;;;;;;;;4944319;28;19918;-73
2021/08/14 08:47:23;;;;;;;;;;;;;;;;;;4955621;28;19918;-72
2021/08/14 08:49:48;;;;;;;;;;;;;;;;;;4960475;28;19924;-72
2021/08/14 08:52:13;;;;;;;;;;;;;;;;;;4948565;28;19914;-74
2021/08/14 08:54:38;;;;;;;;;;;;;;;;;;4967210;28;19914;-72
2021/08/14 08:57:04;;;;;;;;;;;;;;;;;;4966201;28;20310;-71
2021/08/14 08:59:29;;;;;;;;;;;;;;;;;;4942091;28;19914;-71
2021/08/14 09:01:54;;;;;;;;;;;;;;;;;;4964716;28;19913;-71
2021/08/14 09:04:19;;;;;;;;;;;;;;;;;;4954771;28;19918;-71
2021/08/14 09:06:45;;;;;;;;;;;;;;;;;;4950221;28;19920;-73
2021/08/14 09:09:11;;;;;;;;;;;;;;;;;;4966547;28;20478;-71
2021/08/14 09:11:36;;;;;;;;;;;;;;;;;;4951698;28;19960;-72
2021/08/14 09:14:01;;;;;;;;;;;;;;;;;;4946978;28;19918;-72
2021/08/14 09:16:27;;;;;;;;;;;;;;;;;;4951739;28;19950;-71
2021/08/14 09:18:52;;;;;;;;;;;;;;;;;;4964330;28;20549;-72
2021/08/14 09:21:17;;;;;;;;;;;;;;;;;;4952634;28;20615;-71
2021/08/14 09:23:43;;;;;;;;;;;;;;;;;;4951756;28;19918;-73
2021/08/14 09:26:08;;;;;;;;;;;;;;;;;;4966546;28;20264;-72
2021/08/14 09:28:33;;;;;;;;;;;;;;;;;;4972284;28;19917;-73
2021/08/14 09:30:58;;;;;;;;;;;;;;;;;;4966279;28;19914;-72
2021/08/14 09:33:24;;;;;;;;;;;;;;;;;;4968428;28;20009;-72
2021/08/14 09:35:51;;;;;;;;;;;;;;;;;;4952753;28;19916;-73
2021/08/14 09:38:17;;;;;;;;;;;;;;;;;;4966853;28;20410;-72
2021/08/14 09:40:42;;;;;;;;;;;;;;;;;;4954186;28;19922;-73
2021/08/14 09:43:07;;;;;;;;;;;;;;;;;;4952427;28;19925;-72
2021/08/14 09:45:33;;;;;;;;;;;;;;;;;;4962963;28;20651;-72
2021/08/14 09:47:58;;;;;;;;;;;;;;;;;;4972719;28;19914;-72
2021/08/14 09:50:23;;;;;;;;;;;;;;;;;;4966371;28;20402;-74
2021/08/14 09:52:51;;;;;;;;;;;;;;;;;;4958977;28;20004;-72
2021/08/14 09:55:16;;;;;;;;;;;;;;;;;;4967720;28;19957;-73
2021/08/14 09:57:42;;;;;;;;;;;;;;;;;;4959756;28;20069;-69
2021/08/14 10:00:07;;;;;;;;;;;;;;;;;;4969077;28;19921;-69
2021/08/14 10:02:37;;;;;;;;;;;;;;;;;;4961435;28;19933;-70
2021/08/14 10:05:02;;;;;;;;;;;;;;;;;;4969266;28;19918;-70
2021/08/14 10:07:27;;;;;;;;;;;;;;;;;;4966181;28;19937;-67
2021/08/14 10:09:52;;;;;;;;;;;;;;;;;;4928152;28;19921;-70
2021/08/14 10:12:18;;;;;;;;;;;;;;;;;;4968129;28;19925;-71
2021/08/14 10:14:43;;;;;;;;;;;;;;;;;;4952699;28;19921;-69
2021/08/14 10:17:08;;;;;;;;;;;;;;;;;;4953930;28;19925;-70
2021/08/14 10:19:33;;;;;;;;;;;;;;;;;;4961475;28;19917;-70
2021/08/14 10:21:59;;;;;;;;;;;;;;;;;;4960892;28;19918;-70
2021/08/14 10:24:26;;;;;;;;;;;;;;;;;;4967532;28;20375;-70
2021/08/14 10:26:51;;;;;;;;;;;;;;;;;;4965963;28;19918;-70
2021/08/14 10:29:17;;;;;;;;;;;;;;;;;;4971062;28;19959;-70
2021/08/14 10:31:42;;;;;;;;;;;;;;;;;;4946456;28;19987;-70
2021/08/14 10:34:07;;;;;;;;;;;;;;;;;;4964073;28;19941;-70
2021/08/14 10:36:32;;;;;;;;;;;;;;;;;;4973048;28;19914;-70
2021/08/14 10:39:00;;;;;;;;;;;;;;;;;;4963184;28;20364;-70
2021/08/14 10:41:25;;;;;;;;;;;;;;;;;;4956054;28;19909;-70
2021/08/14 10:43:50;;;;;;;;;;;;;;;;;;4944635;28;19965;-70
2021/08/14 10:46:15;;;;;;;;;;;;;;;;;;4964111;28;19968;-70
2021/08/14 10:48:41;;;;;;;;;;;;;;;;;;4970197;28;19914;-70
2021/08/14 10:51:06;;;;;;;;;;;;;;;;;;4964757;28;19914;-73
2021/08/14 10:53:31;;;;;;;;;;;;;;;;;;4971489;28;19930;-73
2021/08/14 10:55:56;;;;;;;;;;;;;;;;;;4966200;28;20048;-73
2021/08/14 10:58:25;;;;;;;;;;;;;;;;;;4962033;28;20433;-69
2021/08/14 11:00:50;;;;;;;;;;;;;;;;;;4940438;28;19913;-68
2021/08/14 11:03:15;;;;;;;;;;;;;;;;;;4962932;28;20362;-69
2021/08/14 11:05:41;;;;;;;;;;;;;;;;;;4966948;28;19920;-69
2021/08/14 11:08:06;;;;;;;;;;;;;;;;;;4962201;28;19914;-68
2021/08/14 11:10:31;;;;;;;;;;;;;;;;;;4960104;28;19942;-68
2021/08/14 11:12:56;;;;;;;;;;;;;;;;;;4968864;28;19914;-68
2021/08/14 11:15:22;;;;;;;;;;;;;;;;;;4959198;28;19909;-68
2021/08/14 11:17:47;;;;;;;;;;;;;;;;;;4951409;28;20000;-68
2021/08/14 11:20:12;;;;;;;;;;;;;;;;;;4943169;28;19917;-68
2021/08/14 11:22:37;;;;;;;;;;;;;;;;;;4947245;28;19968;-69
2021/08/14 11:25:02;;;;;;;;;;;;;;;;;;4968160;28;19949;-68
2021/08/14 11:27:28;;;;;;;;;;;;;;;;;;4962722;28;20008;-68
2021/08/14 11:29:53;;;;;;;;;;;;;;;;;;4953617;28;20318;-68
2021/08/14 11:32:18;;;;;;;;;;;;;;;;;;4945776;28;20027;-69
2021/08/14 11:34:44;;;;;;;;;;;;;;;;;;4961983;28;19958;-68
2021/08/14 11:37:09;;;;;;;;;;;;;;;;;;4950099;28;19922;-70
2021/08/14 11:39:34;;;;;;;;;;;;;;;;;;4962901;28;19940;-69
2021/08/14 11:42:00;;;;;;;;;;;;;;;;;;4969711;28;19918;-69
2021/08/14 11:44:25;;;;;;;;;;;;;;;;;;4966223;28;19918;-69
2021/08/14 11:46:50;;;;;;;;;;;;;;;;;;4962700;28;19918;-70
2021/08/14 11:49:16;;;;;;;;;;;;;;;;;;4964817;28;19933;-71
2021/08/14 11:51:41;;;;;;;;;;;;;;;;;;4957902;28;20649;-70
2021/08/14 11:54:06;;;;;;;;;;;;;;;;;;4962094;28;19913;-70
2021/08/14 11:56:31;;;;;;;;;;;;;;;;;;4958577;28;20002;-69
2021/08/14 11:58:56;;;;;;;;;;;;;;;;;;4960864;28;21117;-71
2021/08/14 12:01:22;;;;;;;;;;;;;;;;;;4964912;28;19945;-71
2021/08/14 12:03:47;;;;;;;;;;;;;;;;;;4958897;28;20770;-70
2021/08/14 12:06:12;;;;;;;;;;;;;;;;;;4963090;28;19910;-70
2021/08/14 12:08:38;;;;;;;;;;;;;;;;;;4953876;28;19996;-73
2021/08/14 12:11:06;;;;;;;;;;;;;;;;;;4959419;28;19909;-70
2021/08/14 12:13:31;;;;;;;;;;;;;;;;;;4964329;28;19984;-70
2021/08/14 12:15:56;;;;;;;;;;;;;;;;;;4958491;28;19950;-71
2021/08/14 12:18:21;;;;;;;;;;;;;;;;;;4962111;28;20180;-71
2021/08/14 12:20:46;;;;;;;;;;;;;;;;;;4957152;28;20415;-70
2021/08/14 12:23:12;;;;;;;;;;;;;;;;;;4959417;28;20601;-69
2021/08/14 12:25:37;;;;;;;;;;;;;;;;;;4962802;28;20209;-70
2021/08/14 12:28:02;;;;;;;;;;;;;;;;;;4941714;28;19920;-70
2021/08/14 12:30:32;;;;;;;;;;;;;;;;;;4959260;28;20360;-69
2021/08/14 12:32:59;;;;;;;;;;;;;;;;;;4958419;28;19957;-70
2021/08/14 12:35:25;;;;;;;;;;;;;;;;;;4954326;28;20705;-72
2021/08/14 12:37:53;;;;;;;;;;;;;;;;;;4944652;28;19913;-72
2021/08/14 12:40:18;;;;;;;;;;;;;;;;;;4960881;28;19918;-71
2021/08/14 12:42:44;;;;;;;;;;;;;;;;;;4957328;28;19914;-73
2021/08/14 12:45:09;;;;;;;;;;;;;;;;;;4949024;28;20251;-73
2021/08/14 12:47:34;;;;;;;;;;;;;;;;;;4957198;28;20297;-73
2021/08/14 12:50:00;;;;;;;;;;;;;;;;;;4962238;28;19949;-71
2021/08/14 12:52:25;;;;;;;;;;;;;;;;;;4940841;28;20405;-73
2021/08/14 12:54:50;;;;;;;;;;;;;;;;;;4956177;28;20363;-71
2021/08/14 12:57:15;;;;;;;;;;;;;;;;;;4962545;28;19929;-72
2021/08/14 12:59:40;;;;;;;;;;;;;;;;;;4957452;28;19913;-71
2021/08/14 13:02:06;;;;;;;;;;;;;;;;;;4946281;28;19914;-71
2021/08/14 13:04:31;;;;;;;;;;;;;;;;;;4958031;28;19968;-73
2021/08/14 13:06:56;;;;;;;;;;;;;;;;;;4954268;28;20240;-71
2021/08/14 13:09:21;;;;;;;;;;;;;;;;;;4962909;28;19914;-73
2021/08/14 13:11:47;;;;;;;;;;;;;;;;;;4956838;28;19949;-71
2021/08/14 13:14:12;;;;;;;;;;;;;;;;;;4964871;28;19984;-72
2021/08/14 13:16:37;;;;;;;;;;;;;;;;;;4956489;28;19914;-70
2021/08/14 13:19:02;;;;;;;;;;;;;;;;;;4956732;28;20692;-70
2021/08/14 13:21:28;;;;;;;;;;;;;;;;;;4963042;28;19914;-69
2021/08/14 13:23:53;;;;;;;;;;;;;;;;;;4956233;28;19918;-70
2021/08/14 13:26:18;;;;;;;;;;;;;;;;;;4943904;28;20438;-70
2021/08/14 13:28:43;;;;;;;;;;;;;;;;;;4957575;28;20452;-69
2021/08/14 13:31:08;;;;;;;;;;;;;;;;;;4957877;28;20484;-70
2021/08/14 13:33:34;;;;;;;;;;;;;;;;;;4960881;28;20469;-70
2021/08/14 13:35:59;;;;;;;;;;;;;;;;;;4957997;28;20008;-70
2021/08/14 13:38:24;;;;;;;;;;;;;;;;;;4963572;28;19914;-70
2021/08/14 13:40:49;;;;;;;;;;;;;;;;;;4961726;28;19956;-70
2021/08/14 13:43:14;;;;;;;;;;;;;;;;;;4947542;28;19914;-70
2021/08/14 13:45:42;;;;;;;;;;;;;;;;;;4967815;28;20310;-71
2021/08/14 13:48:07;;;;;;;;;;;;;;;;;;4960687;28;19918;-71
2021/08/14 13:50:33;;;;;;;;;;;;;;;;;;4947805;28;19913;-71
2021/08/14 13:52:59;;;;;;;;;;;;;;;;;;4961547;28;20027;-71
2021/08/14 13:55:26;;;;;;;;;;;;;;;;;;4960809;28;20036;-71
2021/08/14 13:57:51;;;;;;;;;;;;;;;;;;4964335;28;19914;-71
2021/08/14 14:00:16;;;;;;;;;;;;;;;;;;4961463;28;19921;-71
2021/08/14 14:02:41;;;;;;;;;;;;;;;;;;4947518;28;19917;-71
2021/08/14 14:05:06;;;;;;;;;;;;;;;;;;4957455;28;20434;-71
2021/08/14 14:07:32;;;;;;;;;;;;;;;;;;4945052;28;20342;-71
2021/08/14 14:09:57;;;;;;;;;;;;;;;;;;4968117;28;20091;-71
2021/08/14 14:12:22;;;;;;;;;;;;;;;;;;4959231;28;19925;-71
2021/08/14 14:14:47;;;;;;;;;;;;;;;;;;4966593;28;19952;-71
2021/08/14 14:17:13;;;;;;;;;;;;;;;;;;4923734;28;19918;-71
2021/08/14 14:19:38;;;;;;;;;;;;;;;;;;4958062;28;19918;-71
2021/08/14 14:22:03;;;;;;;;;;;;;;;;;;4964808;28;19913;-71
2021/08/14 14:24:31;;;;;;;;;;;;;;;;;;4941462;28;20350;-70
2021/08/14 14:26:56;;;;;;;;;;;;;;;;;;4951474;28;20438;-70
2021/08/14 14:29:21;;;;;;;;;;;;;;;;;;4960303;28;19914;-71
2021/08/14 14:31:46;;;;;;;;;;;;;;;;;;4939810;28;19914;-71
2021/08/14 14:34:11;;;;;;;;;;;;;;;;;;4962003;28;19941;-71
2021/08/14 14:36:37;;;;;;;;;;;;;;;;;;4959091;28;19914;-70
2021/08/14 14:39:02;;;;;;;;;;;;;;;;;;4968445;28;20040;-70
2021/08/14 14:41:27;;;;;;;;;;;;;;;;;;4941680;28;20040;-70
2021/08/14 14:43:52;;;;;;;;;;;;;;;;;;4962841;28;19914;-71
2021/08/14 14:46:18;;;;;;;;;;;;;;;;;;4964077;28;20298;-71
2021/08/14 14:48:43;;;;;;;;;;;;;;;;;;4955442;28;19984;-70
2021/08/14 14:51:09;;;;;;;;;;;;;;;;;;4967964;28;20033;-70
2021/08/14 14:53:35;;;;;;;;;;;;;;;;;;4959216;28;20426;-70
2021/08/14 14:56:00;;;;;;;;;;;;;;;;;;4958484;28;19933;-71
2021/08/14 14:58:26;;;;;;;;;;;;;;;;;;4963252;28;19913;-71
2021/08/14 15:00:51;;;;;;;;;;;;;;;;;;4940211;28;19914;-71
2021/08/14 15:03:16;;;;;;;;;;;;;;;;;;4947226;28;20061;-70
2021/08/14 15:05:41;;;;;;;;;;;;;;;;;;4958342;28;19960;-71
2021/08/14 15:08:06;;;;;;;;;;;;;;;;;;4940460;28;20748;-70
2021/08/14 15:10:32;;;;;;;;;;;;;;;;;;4962186;28;20370;-71
2021/08/14 15:12:57;;;;;;;;;;;;;;;;;;4962068;28;20323;-71
2021/08/14 15:15:23;;;;;;;;;;;;;;;;;;4967904;28;19913;-71
2021/08/14 15:17:48;;;;;;;;;;;;;;;;;;4959247;28;20477;-71
2021/08/14 15:20:13;;;;;;;;;;;;;;;;;;4961007;28;19918;-70
2021/08/14 15:22:41;;;;;;;;;;;;;;;;;;4964298;28;19918;-70
2021/08/14 15:25:06;;;;;;;;;;;;;;;;;;4960494;28;20298;-70
2021/08/14 15:27:31;;;;;;;;;;;;;;;;;;4944997;28;20179;-70
2021/08/14 15:29:56;;;;;;;;;;;;;;;;;;4936667;28;19968;-70
2021/08/14 15:32:26;;;;;;;;;;;;;;;;;;4958394;28;20389;-70
2021/08/14 15:34:51;;;;;;;;;;;;;;;;;;4958419;28;20475;-71
2021/08/14 15:37:16;;;;;;;;;;;;;;;;;;4950041;28;19929;-70
2021/08/14 15:39:41;;;;;;;;;;;;;;;;;;4953118;28;19914;-70
2021/08/14 15:42:06;;;;;;;;;;;;;;;;;;4948950;28;19913;-71
2021/08/14 15:44:32;;;;;;;;;;;;;;;;;;4963434;28;19921;-70
2021/08/14 15:46:57;;;;;;;;;;;;;;;;;;4970682;28;20356;-70
2021/08/14 15:49:23;;;;;;;;;;;;;;;;;;4946699;28;20326;-70
2021/08/14 15:51:48;;;;;;;;;;;;;;;;;;4969641;28;19964;-70
2021/08/14 15:54:13;;;;;;;;;;;;;;;;;;4964091;28;19922;-70
2021/08/14 15:56:38;;;;;;;;;;;;;;;;;;4963674;28;19925;-70
2021/08/14 15:59:04;;;;;;;;;;;;;;;;;;4967141;28;19914;-70
2021/08/14 16:01:29;;;;;;;;;;;;;;;;;;4967711;28;19925;-71
2021/08/14 16:03:54;;;;;;;;;;;;;;;;;;4971577;28;20004;-70
2021/08/14 16:06:19;;;;;;;;;;;;;;;;;;4949893;28;19925;-70
2021/08/14 16:08:44;;;;;;;;;;;;;;;;;;4951767;28;19976;-72
2021/08/14 16:11:10;;;;;;;;;;;;;;;;;;4951482;28;19914;-72
2021/08/14 16:13:35;;;;;;;;;;;;;;;;;;4953149;28;19917;-72
2021/08/14 16:16:00;;;;;;;;;;;;;;;;;;4971673;28;20235;-72
2021/08/14 16:18:26;;;;;;;;;;;;;;;;;;4979288;28;20294;-72
2021/08/14 16:20:51;;;;;;;;;;;;;;;;;;4972785;28;19918;-72
2021/08/14 16:23:17;;;;;;;;;;;;;;;;;;4966462;28;19928;-72
2021/08/14 16:25:42;;;;;;;;;;;;;;;;;;4971194;28;19914;-72
2021/08/14 16:28:07;;;;;;;;;;;;;;;;;;4970847;28;19965;-72
2021/08/14 16:30:32;;;;;;;;;;;;;;;;;;4967754;28;19942;-73
2021/08/14 16:32:58;;;;;;;;;;;;;;;;;;4970841;28;19914;-74